Time,TemperatureF,DewpointF,PressureIn,WindDirection,WindDirectionDegrees,WindSpeedMPH,WindSpeedGustMPH,Humidity,HourlyPrecipIn,Conditions,Clouds,dailyrainin,SoftwareType,DateUTC
2015-05-27 00:05:00,68.2,64.2,30.14,SW,232,0.0,1.0,87,0.00,,,0.00,Wunderground v.1.15,2015-05-27 04:05:00,
2015-05-27 00:11:00,68.1,64.1,30.14,West,275,1.0,1.0,87,0.00,,,0.00,Wunderground v.1.15,2015-05-27 04:11:00,
2015-05-27 00:16:00,68.1,64.1,30.13,WSW,238,0.0,1.0,87,0.00,,,0.00,Wunderground v.1.15,2015-05-27 04:16:00,
2015-05-27 00:22:00,68.0,64.0,30.14,West,259,1.0,1.0,87,0.00,,,0.00,Wunderground v.1.15,2015-05-27 04:22:00,
2015-05-27 00:28:00,67.9,63.9,30.13,West,259,1.0,1.0,87,0.00,,,0.00,Wunderground v.1.15,2015-05-27 04:28:00,
2015-05-27 00:34:00,67.6,63.6,30.13,WSW,256,1.0,1.0,87,0.00,,,0.00,Wunderground v.1.15,2015-05-27 04:34:00,
2015-05-27 00:39:00,67.6,63.6,30.13,WSW,245,0.0,1.0,87,0.00,,,0.00,Wunderground v.1.15,2015-05-27 04:39:00,
2015-05-27 00:45:00,67.5,63.5,30.13,SW,215,1.0,2.0,87,0.00,,,0.00,Wunderground v.1.15,2015-05-27 04:45:00,
2015-05-27 00:51:00,67.5,63.5,30.13,WSW,248,1.0,1.0,87,0.00,,,0.00,Wunderground v.1.15,2015-05-27 04:51:00,
2015-05-27 00:56:00,67.5,63.5,30.13,WSW,240,0.0,2.0,87,0.00,,,0.00,Wunderground v.1.15,2015-05-27 04:56:00,
2015-05-27 01:01:00,67.5,63.5,30.13,WSW,239,0.0,1.0,87,0.00,,,0.00,Wunderground v.1.15,2015-05-27 05:01:00,
2015-05-27 01:07:00,67.3,63.3,30.13,SW,229,0.0,1.0,87,0.00,,,0.00,Wunderground v.1.15,2015-05-27 05:07:00,
2015-05-27 01:13:00,67.2,63.2,30.13,West,279,2.0,2.0,87,0.00,,,0.00,Wunderground v.1.15,2015-05-27 05:13:00,
2015-05-27 01:19:00,67.2,63.2,30.13,SW,219,0.0,2.0,87,0.00,,,0.00,Wunderground v.1.15,2015-05-27 05:19:00,
2015-05-27 01:24:00,67.1,63.1,30.13,SW,231,0.0,1.0,87,0.00,,,0.00,Wunderground v.1.15,2015-05-27 05:24:00,
2015-05-27 01:30:00,67.0,63.0,30.13,WSW,246,1.0,1.0,87,0.00,,,0.00,Wunderground v.1.15,2015-05-27 05:30:00,
2015-05-27 01:36:00,67.0,63.0,30.13,SSW,210,0.0,1.0,87,0.00,,,0.00,Wunderground v.1.15,2015-05-27 05:36:00,
2015-05-27 01:42:00,66.8,63.1,30.12,SW,222,0.0,0.0,88,0.00,,,0.00,Wunderground v.1.15,2015-05-27 05:42:00,
2015-05-27 01:47:00,66.7,63.0,30.13,WSW,240,0.0,1.0,88,0.00,,,0.00,Wunderground v.1.15,2015-05-27 05:47:00,
2015-05-27 01:53:00,66.7,63.0,30.12,WSW,255,0.0,0.0,88,0.00,,,0.00,Wunderground v.1.15,2015-05-27 05:53:00,
2015-05-27 01:59:00,66.6,62.9,30.12,West,266,0.0,0.0,88,0.00,,,0.00,Wunderground v.1.15,2015-05-27 05:59:00,
2015-05-27 02:04:00,66.4,62.7,30.12,SW,235,0.0,0.0,88,0.00,,,0.00,Wunderground v.1.15,2015-05-27 06:04:00,
2015-05-27 02:09:00,66.3,62.6,30.12,SW,235,0.0,2.0,88,0.00,,,0.00,Wunderground v.1.15,2015-05-27 06:09:00,
2015-05-27 02:14:00,66.3,62.6,30.12,SW,235,0.0,1.0,88,0.00,,,0.00,Wunderground v.1.15,2015-05-27 06:14:00,
2015-05-27 02:19:00,66.2,62.9,30.13,SW,225,0.0,1.0,89,0.00,,,0.00,Wunderground v.1.15,2015-05-27 06:19:00,
2015-05-27 02:24:00,66.0,62.7,30.13,SW,222,0.0,1.0,89,0.00,,,0.00,Wunderground v.1.15,2015-05-27 06:24:00,
2015-05-27 02:29:00,65.9,62.6,30.12,WSW,239,1.0,2.0,89,0.00,,,0.00,Wunderground v.1.15,2015-05-27 06:29:00,
2015-05-27 02:34:00,65.8,62.5,30.12,WSW,237,0.0,1.0,89,0.00,,,0.00,Wunderground v.1.15,2015-05-27 06:34:00,
2015-05-27 02:39:00,65.7,62.4,30.12,SW,236,0.0,2.0,89,0.00,,,0.00,Wunderground v.1.15,2015-05-27 06:39:00,
2015-05-27 02:44:00,65.6,62.3,30.11,SW,236,0.0,1.0,89,0.00,,,0.00,Wunderground v.1.15,2015-05-27 06:44:00,
2015-05-27 02:49:00,65.4,62.4,30.12,SSW,208,0.0,1.0,90,0.00,,,0.00,Wunderground v.1.15,2015-05-27 06:49:00,
2015-05-27 02:54:00,65.3,62.3,30.12,West,273,0.0,1.0,90,0.00,,,0.00,Wunderground v.1.15,2015-05-27 06:54:00,
2015-05-27 02:59:00,65.1,62.1,30.11,SW,228,0.0,1.0,90,0.00,,,0.00,Wunderground v.1.15,2015-05-27 06:59:00,
2015-05-27 03:04:00,65.0,62.0,30.11,SW,228,1.0,1.0,90,0.00,,,0.00,Wunderground v.1.15,2015-05-27 07:04:00,
2015-05-27 03:09:00,65.0,62.0,30.11,SW,235,0.0,1.0,90,0.00,,,0.00,Wunderground v.1.15,2015-05-27 07:09:00,
2015-05-27 03:14:00,65.0,62.0,30.11,SW,235,0.0,1.0,90,0.00,,,0.00,Wunderground v.1.15,2015-05-27 07:14:00,
2015-05-27 03:19:00,64.9,61.9,30.11,WSW,248,0.0,1.0,90,0.00,,,0.00,Wunderground v.1.15,2015-05-27 07:19:00,
2015-05-27 03:24:00,64.9,62.2,30.11,SSW,194,0.0,1.0,91,0.00,,,0.00,Wunderground v.1.15,2015-05-27 07:24:00,
2015-05-27 03:29:00,64.8,62.1,30.11,SW,218,0.0,2.0,91,0.00,,,0.00,Wunderground v.1.15,2015-05-27 07:29:00,
2015-05-27 03:34:00,64.7,62.0,30.11,SW,225,0.0,1.0,91,0.00,,,0.00,Wunderground v.1.15,2015-05-27 07:34:00,
2015-05-27 03:39:00,64.6,61.9,30.11,WSW,238,0.0,2.0,91,0.00,,,0.00,Wunderground v.1.15,2015-05-27 07:39:00,
2015-05-27 03:44:00,64.4,61.7,30.11,WSW,238,0.0,1.0,91,0.00,,,0.00,Wunderground v.1.15,2015-05-27 07:44:00,
2015-05-27 03:49:00,64.3,61.6,30.11,WSW,245,0.0,2.0,91,0.00,,,0.00,Wunderground v.1.15,2015-05-27 07:49:00,
2015-05-27 03:54:00,64.2,61.8,30.11,SW,219,1.0,1.0,92,0.00,,,0.00,Wunderground v.1.15,2015-05-27 07:54:00,
2015-05-27 03:59:00,64.1,61.7,30.11,SW,214,0.0,1.0,92,0.00,,,0.00,Wunderground v.1.15,2015-05-27 07:59:00,
2015-05-27 04:04:00,64.0,61.6,30.11,SW,217,0.0,3.0,92,0.00,,,0.00,Wunderground v.1.15,2015-05-27 08:04:00,
2015-05-27 04:09:00,64.1,61.7,30.11,SSW,208,1.0,3.0,92,0.00,,,0.00,Wunderground v.1.15,2015-05-27 08:09:00,
2015-05-27 04:19:00,64.0,61.6,30.11,SW,225,1.0,2.0,92,0.00,,,0.00,Wunderground v.1.15,2015-05-27 08:19:00,
2015-05-27 04:24:00,64.0,61.6,30.11,WSW,245,1.0,1.0,92,0.00,,,0.00,Wunderground v.1.15,2015-05-27 08:24:00,
2015-05-27 04:29:00,64.1,61.7,30.11,SW,232,0.0,4.0,92,0.00,,,0.00,Wunderground v.1.15,2015-05-27 08:29:00,
2015-05-27 04:34:00,64.1,61.7,30.11,ESE,120,0.0,2.0,92,0.00,,,0.00,Wunderground v.1.15,2015-05-27 08:34:00,
2015-05-27 04:39:00,64.0,61.6,30.11,SW,226,0.0,2.0,92,0.00,,,0.00,Wunderground v.1.15,2015-05-27 08:39:00,
2015-05-27 04:49:00,64.0,61.6,30.11,West,271,0.0,3.0,92,0.00,,,0.00,Wunderground v.1.15,2015-05-27 08:49:00,
2015-05-27 04:54:00,63.9,61.5,30.11,SSW,208,0.0,1.0,92,0.00,,,0.00,Wunderground v.1.15,2015-05-27 08:54:00,
2015-05-27 04:59:00,63.9,61.5,30.11,SSW,204,0.0,3.0,92,0.00,,,0.00,Wunderground v.1.15,2015-05-27 08:59:00,
2015-05-27 05:04:00,63.9,61.5,30.11,SW,230,0.0,1.0,92,0.00,,,0.00,Wunderground v.1.15,2015-05-27 09:04:00,
2015-05-27 05:09:00,63.9,61.5,30.11,SW,221,2.0,4.0,92,0.00,,,0.00,Wunderground v.1.15,2015-05-27 09:09:00,
2015-05-27 05:14:00,63.9,61.5,30.12,South,186,0.0,1.0,92,0.00,,,0.00,Wunderground v.1.15,2015-05-27 09:14:00,
2015-05-27 05:19:00,63.9,61.5,30.12,SW,232,0.0,3.0,92,0.00,,,0.00,Wunderground v.1.15,2015-05-27 09:19:00,
2015-05-27 05:24:00,64.0,61.6,30.12,WSW,245,1.0,2.0,92,0.00,,,0.00,Wunderground v.1.15,2015-05-27 09:24:00,
2015-05-27 05:29:00,63.9,61.5,30.12,WSW,237,0.0,3.0,92,0.00,,,0.00,Wunderground v.1.15,2015-05-27 09:29:00,
2015-05-27 05:34:00,63.9,61.5,30.12,SW,236,1.0,3.0,92,0.00,,,0.00,Wunderground v.1.15,2015-05-27 09:34:00,
2015-05-27 05:39:00,63.9,61.5,30.12,SSW,203,0.0,3.0,92,0.00,,,0.00,Wunderground v.1.15,2015-05-27 09:39:00,
2015-05-27 05:44:00,63.9,61.5,30.12,WSW,252,0.0,2.0,92,0.00,,,0.00,Wunderground v.1.15,2015-05-27 09:44:00,
2015-05-27 05:49:00,63.9,61.5,30.12,SSE,149,0.0,2.0,92,0.00,,,0.00,Wunderground v.1.15,2015-05-27 09:49:00,
2015-05-27 05:54:00,63.9,61.5,30.12,West,262,0.0,2.0,92,0.00,,,0.00,Wunderground v.1.15,2015-05-27 09:54:00,
2015-05-27 05:59:00,64.0,61.6,30.12,West,264,1.0,7.0,92,0.00,,,0.00,Wunderground v.1.15,2015-05-27 09:59:00,
2015-05-27 06:04:00,64.1,61.4,30.13,West,262,0.0,3.0,91,0.00,,,0.00,Wunderground v.1.15,2015-05-27 10:04:00,
2015-05-27 06:14:00,64.3,61.6,30.13,SW,221,2.0,2.0,91,0.00,,,0.00,Wunderground v.1.15,2015-05-27 10:14:00,
2015-05-27 06:19:00,64.5,61.8,30.13,West,279,0.0,2.0,91,0.00,,,0.00,Wunderground v.1.15,2015-05-27 10:19:00,
2015-05-27 06:24:00,64.8,62.1,30.13,SW,224,2.0,5.0,91,0.00,,,0.00,Wunderground v.1.15,2015-05-27 10:24:00,
2015-05-27 06:29:00,65.3,62.3,30.13,West,263,1.0,5.0,90,0.00,,,0.00,Wunderground v.1.15,2015-05-27 10:29:00,
2015-05-27 06:34:00,65.8,62.5,30.13,West,270,0.0,2.0,89,0.00,,,0.00,Wunderground v.1.15,2015-05-27 10:34:00,
2015-05-27 06:39:00,66.0,62.3,30.13,South,172,1.0,2.0,88,0.00,,,0.00,Wunderground v.1.15,2015-05-27 10:39:00,
2015-05-27 06:44:00,65.9,62.2,30.13,WSW,245,1.0,2.0,88,0.00,,,0.00,Wunderground v.1.15,2015-05-27 10:44:00,
2015-05-27 06:49:00,65.8,62.1,30.13,SW,229,0.0,2.0,88,0.00,,,0.00,Wunderground v.1.15,2015-05-27 10:49:00,
2015-05-27 06:54:00,65.5,62.2,30.13,West,270,0.0,2.0,89,0.00,,,0.00,Wunderground v.1.15,2015-05-27 10:54:00,
2015-05-27 06:59:00,65.2,61.9,30.13,WSW,243,0.0,2.0,89,0.00,,,0.00,Wunderground v.1.15,2015-05-27 10:59:00,
2015-05-27 07:04:00,65.1,62.1,30.12,WNW,283,0.0,3.0,90,0.00,,,0.00,Wunderground v.1.15,2015-05-27 11:04:00,
2015-05-27 07:09:00,65.6,62.6,30.13,West,278,0.0,3.0,90,0.00,,,0.00,Wunderground v.1.15,2015-05-27 11:09:00,
2015-05-27 07:14:00,66.2,62.9,30.13,WSW,252,1.0,2.0,89,0.00,,,0.00,Wunderground v.1.15,2015-05-27 11:14:00,
2015-05-27 07:19:00,66.6,62.9,30.13,SE,125,2.0,5.0,88,0.00,,,0.00,Wunderground v.1.15,2015-05-27 11:19:00,
2015-05-27 07:24:00,67.3,63.3,30.13,East,80,2.0,2.0,87,0.00,,,0.00,Wunderground v.1.15,2015-05-27 11:24:00,
2015-05-27 07:29:00,67.8,63.5,30.13,WNW,287,0.0,2.0,86,0.00,,,0.00,Wunderground v.1.15,2015-05-27 11:29:00,
2015-05-27 07:39:00,68.1,63.8,30.13,SW,215,0.0,3.0,86,0.00,,,0.00,Wunderground v.1.15,2015-05-27 11:39:00,
2015-05-27 07:44:00,68.0,63.7,30.13,WSW,250,0.0,3.0,86,0.00,,,0.00,Wunderground v.1.15,2015-05-27 11:44:00,
2015-05-27 07:49:00,68.0,63.7,30.13,WNW,293,0.0,5.0,86,0.00,,,0.00,Wunderground v.1.15,2015-05-27 11:49:00,
2015-05-27 07:54:00,67.9,63.6,30.13,SW,236,0.0,3.0,86,0.00,,,0.00,Wunderground v.1.15,2015-05-27 11:54:00,
2015-05-27 07:59:00,67.8,63.5,30.13,West,264,0.0,3.0,86,0.00,,,0.00,Wunderground v.1.15,2015-05-27 11:59:00,
2015-05-27 08:04:00,68.2,64.2,30.13,West,262,0.0,1.0,87,0.00,,,0.00,Wunderground v.1.15,2015-05-27 12:04:00,
2015-05-27 08:09:00,68.5,64.1,30.13,SE,143,0.0,2.0,86,0.00,,,0.00,Wunderground v.1.15,2015-05-27 12:09:00,
2015-05-27 08:14:00,68.7,64.3,30.12,WNW,283,1.0,5.0,86,0.00,,,0.00,Wunderground v.1.15,2015-05-27 12:14:00,
2015-05-27 08:19:00,68.8,64.4,30.12,ESE,103,0.0,5.0,86,0.00,,,0.00,Wunderground v.1.15,2015-05-27 12:19:00,
2015-05-27 08:24:00,69.4,64.7,30.13,West,259,2.0,4.0,85,0.00,,,0.00,Wunderground v.1.15,2015-05-27 12:24:00,
2015-05-27 08:29:00,69.5,64.8,30.13,SW,215,1.0,7.0,85,0.00,,,0.00,Wunderground v.1.15,2015-05-27 12:29:00,
2015-05-27 08:34:00,69.2,64.2,30.13,South,190,1.0,5.0,84,0.00,,,0.00,Wunderground v.1.15,2015-05-27 12:34:00,
2015-05-27 08:39:00,68.7,64.0,30.13,West,277,1.0,5.0,85,0.00,,,0.00,Wunderground v.1.15,2015-05-27 12:39:00,
2015-05-27 08:44:00,68.7,64.3,30.13,SSW,207,0.0,4.0,86,0.00,,,0.00,Wunderground v.1.15,2015-05-27 12:44:00,
2015-05-27 08:49:00,69.0,64.6,30.13,SW,230,2.0,5.0,86,0.00,,,0.00,Wunderground v.1.15,2015-05-27 12:49:00,
2015-05-27 08:54:00,69.0,64.6,30.13,SE,131,2.0,4.0,86,0.00,,,0.00,Wunderground v.1.15,2015-05-27 12:54:00,
2015-05-27 08:59:00,69.4,65.0,30.12,SSW,208,1.0,5.0,86,0.00,,,0.00,Wunderground v.1.15,2015-05-27 12:59:00,
2015-05-27 09:04:00,69.9,65.2,30.12,WSW,240,0.0,2.0,85,0.00,,,0.00,Wunderground v.1.15,2015-05-27 13:04:00,
2015-05-27 09:09:00,70.4,65.3,30.12,WNW,290,1.0,4.0,84,0.00,,,0.00,Wunderground v.1.15,2015-05-27 13:09:00,
2015-05-27 09:15:00,70.8,65.7,30.12,SE,136,1.0,4.0,84,0.00,,,0.00,Wunderground v.1.15,2015-05-27 13:15:00,
2015-05-27 09:20:00,71.1,65.7,30.12,SW,231,1.0,7.0,83,0.00,,,0.00,Wunderground v.1.15,2015-05-27 13:20:00,
2015-05-27 09:25:00,71.3,65.9,30.12,North,1,0.0,4.0,83,0.00,,,0.00,Wunderground v.1.15,2015-05-27 13:25:00,
2015-05-27 09:29:00,71.6,65.8,30.12,ESE,122,1.0,6.0,82,0.00,,,0.00,Wunderground v.1.15,2015-05-27 13:29:00,
2015-05-27 09:35:00,72.0,66.2,30.11,South,179,1.0,3.0,82,0.00,,,0.00,Wunderground v.1.15,2015-05-27 13:35:00,
2015-05-27 09:40:00,72.6,66.8,30.11,SSW,208,1.0,4.0,82,0.00,,,0.00,Wunderground v.1.15,2015-05-27 13:40:00,
2015-05-27 09:45:00,73.4,67.2,30.11,SW,215,1.0,3.0,81,0.00,,,0.00,Wunderground v.1.15,2015-05-27 13:45:00,
2015-05-27 09:50:00,74.0,67.1,30.11,East,95,3.0,3.0,79,0.00,,,0.00,Wunderground v.1.15,2015-05-27 13:50:00,
2015-05-27 09:55:00,74.0,67.1,30.11,West,277,0.0,6.0,79,0.00,,,0.00,Wunderground v.1.15,2015-05-27 13:55:00,
2015-05-27 10:00:00,73.8,66.9,30.11,West,269,0.0,1.0,79,0.00,,,0.00,Wunderground v.1.15,2015-05-27 14:00:00,
2015-05-27 10:05:00,74.0,67.1,30.11,East,98,2.0,3.0,79,0.00,,,0.00,Wunderground v.1.15,2015-05-27 14:05:00,
2015-05-27 10:10:00,74.3,67.4,30.11,SE,141,1.0,1.0,79,0.00,,,0.00,Wunderground v.1.15,2015-05-27 14:10:00,
2015-05-27 10:15:00,74.9,67.9,30.11,SSW,193,2.0,4.0,79,0.00,,,0.00,Wunderground v.1.15,2015-05-27 14:15:00,
2015-05-27 10:20:00,75.7,68.0,30.11,WNW,290,1.0,1.0,77,0.00,,,0.00,Wunderground v.1.15,2015-05-27 14:20:00,
2015-05-27 10:25:00,75.8,67.7,30.11,WSW,248,1.0,8.0,76,0.00,,,0.00,Wunderground v.1.15,2015-05-27 14:25:00,
2015-05-27 10:30:00,76.3,67.8,30.11,NE,41,2.0,2.0,75,0.00,,,0.00,Wunderground v.1.15,2015-05-27 14:30:00,
2015-05-27 10:35:00,76.5,68.0,30.11,ENE,75,1.0,7.0,75,0.00,,,0.00,Wunderground v.1.15,2015-05-27 14:35:00,
2015-05-27 10:40:00,76.7,68.2,30.11,SW,226,1.0,2.0,75,0.00,,,0.00,Wunderground v.1.15,2015-05-27 14:40:00,
2015-05-27 10:45:00,77.1,68.6,30.11,ESE,108,1.0,5.0,75,0.00,,,0.00,Wunderground v.1.15,2015-05-27 14:45:00,
2015-05-27 10:50:00,77.3,68.4,30.11,West,274,2.0,2.0,74,0.00,,,0.00,Wunderground v.1.15,2015-05-27 14:50:00,
2015-05-27 10:55:00,77.6,68.3,30.11,SW,214,5.0,5.0,73,0.00,,,0.00,Wunderground v.1.15,2015-05-27 14:55:00,
2015-05-27 11:01:00,78.2,69.2,30.10,SW,236,1.0,2.0,74,0.00,,,0.00,Wunderground v.1.15,2015-05-27 15:01:00,
2015-05-27 11:06:00,79.1,68.9,30.10,SW,219,2.0,4.0,71,0.00,,,0.00,Wunderground v.1.15,2015-05-27 15:06:00,
2015-05-27 11:11:00,79.6,69.4,30.10,South,191,0.0,2.0,71,0.00,,,0.00,Wunderground v.1.15,2015-05-27 15:11:00,
2015-05-27 11:16:00,80.1,69.4,30.10,WSW,239,1.0,6.0,70,0.00,,,0.00,Wunderground v.1.15,2015-05-27 15:16:00,
2015-05-27 11:21:00,80.2,68.7,30.10,SW,229,2.0,3.0,68,0.00,,,0.00,Wunderground v.1.15,2015-05-27 15:21:00,
2015-05-27 11:26:00,80.5,69.8,30.09,SW,224,2.0,5.0,70,0.00,,,0.00,Wunderground v.1.15,2015-05-27 15:26:00,
2015-05-27 11:31:00,81.3,70.2,30.09,WSW,250,0.0,2.0,69,0.00,,,0.00,Wunderground v.1.15,2015-05-27 15:31:00,
2015-05-27 11:36:00,81.9,69.4,30.10,WNW,288,1.0,5.0,66,0.00,,,0.00,Wunderground v.1.15,2015-05-27 15:36:00,
2015-05-27 11:41:00,81.5,68.1,30.10,WNW,297,1.0,6.0,64,0.00,,,0.00,Wunderground v.1.15,2015-05-27 15:41:00,
2015-05-27 11:46:00,81.3,69.3,30.10,ESE,115,2.0,9.0,67,0.00,,,0.00,Wunderground v.1.15,2015-05-27 15:46:00,
2015-05-27 11:51:00,81.7,69.2,30.09,WSW,250,3.0,4.0,66,0.00,,,0.00,Wunderground v.1.15,2015-05-27 15:51:00,
2015-05-27 11:56:00,81.9,70.3,30.09,SE,125,0.0,4.0,68,0.00,,,0.00,Wunderground v.1.15,2015-05-27 15:56:00,
2015-05-27 12:01:00,82.1,68.7,30.09,West,260,2.0,2.0,64,0.00,,,0.00,Wunderground v.1.15,2015-05-27 16:01:00,
2015-05-27 12:06:00,82.1,68.7,30.09,WSW,245,2.0,4.0,64,0.00,,,0.00,Wunderground v.1.15,2015-05-27 16:06:00,
2015-05-27 12:11:00,82.6,69.2,30.08,West,271,0.0,4.0,64,0.00,,,0.00,Wunderground v.1.15,2015-05-27 16:11:00,
2015-05-27 12:16:00,82.4,68.1,30.08,West,262,4.0,8.0,62,0.00,,,0.00,Wunderground v.1.15,2015-05-27 16:16:00,
2015-05-27 12:21:00,82.3,69.8,30.08,South,169,11.0,11.0,66,0.00,,,0.00,Wunderground v.1.15,2015-05-27 16:21:00,
2015-05-27 12:26:00,82.8,68.9,30.08,SE,143,3.0,11.0,63,0.00,,,0.00,Wunderground v.1.15,2015-05-27 16:26:00,
2015-05-27 12:31:00,83.0,68.6,30.08,South,180,2.0,4.0,62,0.00,,,0.00,Wunderground v.1.15,2015-05-27 16:31:00,
2015-05-27 12:36:00,82.6,68.7,30.08,West,265,1.0,4.0,63,0.00,,,0.00,Wunderground v.1.15,2015-05-27 16:36:00,
2015-05-27 12:41:00,82.8,68.9,30.08,ESE,122,2.0,5.0,63,0.00,,,0.00,Wunderground v.1.15,2015-05-27 16:41:00,
2015-05-27 12:46:00,81.9,68.5,30.07,West,278,3.0,8.0,64,0.00,,,0.00,Wunderground v.1.15,2015-05-27 16:46:00,
2015-05-27 12:51:00,81.3,68.0,30.07,WSW,240,2.0,5.0,64,0.00,,,0.00,Wunderground v.1.15,2015-05-27 16:51:00,
2015-05-27 12:56:00,81.5,69.5,30.07,SSW,207,0.0,5.0,67,0.00,,,0.00,Wunderground v.1.15,2015-05-27 16:56:00,
2015-05-27 13:01:00,81.8,68.4,30.08,WNW,297,2.0,6.0,64,0.00,,,0.00,Wunderground v.1.15,2015-05-27 17:01:00,
2015-05-27 13:06:00,81.9,68.5,30.07,SSW,200,6.0,6.0,64,0.00,,,0.00,Wunderground v.1.15,2015-05-27 17:06:00,
2015-05-27 13:11:00,82.5,68.6,30.07,SW,233,1.0,4.0,63,0.00,,,0.00,Wunderground v.1.15,2015-05-27 17:11:00,
2015-05-27 13:16:00,82.4,69.0,30.07,West,274,2.0,4.0,64,0.00,,,0.00,Wunderground v.1.15,2015-05-27 17:16:00,
2015-05-27 13:21:00,82.5,69.1,30.06,ESE,105,1.0,6.0,64,0.00,,,0.00,Wunderground v.1.15,2015-05-27 17:21:00,
2015-05-27 13:26:00,82.7,69.3,30.06,ENE,58,2.0,6.0,64,0.00,,,0.00,Wunderground v.1.15,2015-05-27 17:26:00,
2015-05-27 13:31:00,82.7,69.3,30.06,WNW,288,3.0,4.0,64,0.00,,,0.00,Wunderground v.1.15,2015-05-27 17:31:00,
2015-05-27 13:36:00,82.8,69.4,30.06,SSW,193,2.0,6.0,64,0.00,,,0.00,Wunderground v.1.15,2015-05-27 17:36:00,
2015-05-27 13:41:00,83.0,69.6,30.06,West,274,2.0,8.0,64,0.00,,,0.00,Wunderground v.1.15,2015-05-27 17:41:00,
2015-05-27 13:46:00,82.9,69.5,30.06,SW,222,1.0,8.0,64,0.00,,,0.00,Wunderground v.1.15,2015-05-27 17:46:00,
2015-05-27 13:51:00,83.2,69.8,30.05,WSW,240,0.0,3.0,64,0.00,,,0.00,Wunderground v.1.15,2015-05-27 17:51:00,
2015-05-27 13:56:00,83.3,69.4,30.05,West,273,0.0,5.0,63,0.00,,,0.00,Wunderground v.1.15,2015-05-27 17:56:00,
2015-05-27 14:01:00,82.8,68.4,30.05,West,274,5.0,6.0,62,0.00,,,0.00,Wunderground v.1.15,2015-05-27 18:01:00,